sensor_id;sensor_type;location;lat;lon;timestamp;noise_LAeq;noise_LA_min;noise_LA_max;noise_LA01;noise_LA95
64393;Laerm;50712;49.506;10.400;2022-10-15T00:00:06;31.75;30.07;39.65;;
64393;Laerm;50712;49.506;10.400;2022-10-15T00:01:13;33.28;30.64;44.16;;
64393;Laerm;50712;49.506;10.400;2022-10-15T00:01:44;35.53;32.44;48.41;;
64393;Laerm;50712;49.506;10.400;2022-10-15T00:02:14;35.91;33.86;40.13;;
64393;Laerm;50712;49.506;10.400;2022-10-15T00:03:15;37.53;34.75;49.06;;
64393;Laerm;50712;49.506;10.400;2022-10-15T00:03:45;36.98;34.21;53.60;;
64393;Laerm;50712;49.506;10.400;2022-10-15T00:04:16;37.03;34.50;45.15;;
64393;Laerm;50712;49.506;10.400;2022-10-15T00:04:46;37.25;35.01;47.19;;
64393;Laerm;50712;49.506;10.400;2022-10-15T00:05:17;37.27;34.92;52.06;;
64393;Laerm;50712;49.506;10.400;2022-10-15T00:05:47;36.76;34.53;49.21;;
64393;Laerm;50712;49.506;10.400;2022-10-15T00:06:19;35.92;33.93;43.78;;
64393;Laerm;50712;49.506;10.400;2022-10-15T00:06:50;36.94;34.29;46.73;;
64393;Laerm;50712;49.506;10.400;2022-10-15T00:07:20;37.26;35.19;53.73;;
64393;Laerm;50712;49.506;10.400;2022-10-15T00:07:51;37.01;34.51;43.59;;
64393;Laerm;50712;49.506;10.400;2022-10-15T00:08:21;36.87;34.52;44.14;;
64393;Laerm;50712;49.506;10.400;2022-10-15T00:08:52;36.67;34.42;47.28;;
64393;Laerm;50712;49.506;10.400;2022-10-15T00:09:22;36.70;34.02;55.65;;
64393;Laerm;50712;49.506;10.400;2022-10-15T00:10:23;36.40;34.29;42.03;;
64393;Laerm;50712;49.506;10.400;2022-10-15T00:10:53;41.87;34.95;50.62;;
64393;Laerm;50712;49.506;10.400;2022-10-15T00:11:25;41.09;35.35;50.33;;
64393;Laerm;50712;49.506;10.400;2022-10-15T00:11:56;37.22;34.64;42.43;;
64393;Laerm;50712;49.506;10.400;2022-10-15T00:12:26;36.72;34.83;42.73;;
64393;Laerm;50712;49.506;10.400;2022-10-15T00:12:57;41.06;33.30;53.12;;
64393;Laerm;50712;49.506;10.400;2022-10-15T00:13:27;47.38;33.93;57.53;;
64393;Laerm;50712;49.506;10.400;2022-10-15T00:13:59;44.33;32.98;56.92;;
64393;Laerm;50712;49.506;10.400;2022-10-15T00:14:29;35.60;32.61;52.99;;
64393;Laerm;50712;49.506;10.400;2022-10-15T00:14:59;34.74;32.24;43.51;;
64393;Laerm;50712;49.506;10.400;2022-10-15T00:15:30;34.06;31.86;45.98;;
64393;Laerm;50712;49.506;10.400;2022-10-15T00:16:00;34.17;32.03;38.99;;
64393;Laerm;50712;49.506;10.400;2022-10-15T00:16:31;34.93;31.56;51.55;;
64393;Laerm;50712;49.506;10.400;2022-10-15T00:17:02;35.11;32.17;44.28;;
64393;Laerm;50712;49.506;10.400;2022-10-15T00:17:33;35.30;32.93;44.28;;
64393;Laerm;50712;49.506;10.400;2022-10-15T00:18:03;35.27;33.41;40.16;;
64393;Laerm;50712;49.506;10.400;2022-10-15T00:18:34;34.92;32.81;42.01;;
64393;Laerm;50712;49.506;10.400;2022-10-15T00:19:04;34.89;32.40;48.89;;
64393;Laerm;50712;49.506;10.400;2022-10-15T00:19:35;34.02;32.23;39.73;;
64393;Laerm;50712;49.506;10.400;2022-10-15T00:20:08;33.44;31.46;40.59;;
64393;Laerm;50712;49.506;10.400;2022-10-15T00:20:40;33.17;31.19;43.37;;
64393;Laerm;50712;49.506;10.400;2022-10-15T00:21:13;33.89;30.28;54.86;;
64393;Laerm;50712;49.506;10.400;2022-10-15T00:21:44;32.57;30.40;43.22;;
64393;Laerm;50712;49.506;10.400;2022-10-15T00:22:14;33.60;30.01;39.63;;
64393;Laerm;50712;49.506;10.400;2022-10-15T00:22:45;35.08;32.08;41.57;;
64393;Laerm;50712;49.506;10.400;2022-10-15T00:23:15;36.65;32.68;46.32;;
64393;Laerm;50712;49.506;10.400;2022-10-15T00:23:47;37.28;33.34;43.50;;
64393;Laerm;50712;49.506;10.400;2022-10-15T00:24:18;37.56;33.56;55.10;;
64393;Laerm;50712;49.506;10.400;2022-10-15T00:24:48;35.53;32.63;41.71;;
64393;Laerm;50712;49.506;10.400;2022-10-15T00:25:19;36.26;32.67;47.61;;
64393;Laerm;50712;49.506;10.400;2022-10-15T00:25:49;34.68;32.19;41.87;;
64393;Laerm;50712;49.506;10.400;2022-10-15T00:26:21;35.10;32.60;39.49;;
64393;Laerm;50712;49.506;10.400;2022-10-15T00:26:52;34.65;31.81;42.29;;
64393;Laerm;50712;49.506;10.400;2022-10-15T00:27:23;35.48;31.66;59.22;;
64393;Laerm;50712;49.506;10.400;2022-10-15T00:27:53;33.38;30.94;46.16;;
64393;Laerm;50712;49.506;10.400;2022-10-15T00:28:23;33.95;30.38;41.52;;
64393;Laerm;50712;49.506;10.400;2022-10-15T00:28:56;35.10;31.72;43.80;;
64393;Laerm;50712;49.506;10.400;2022-10-15T00:29:27;34.81;31.94;40.70;;
64393;Laerm;50712;49.506;10.400;2022-10-15T00:29:58;33.73;31.14;48.20;;
64393;Laerm;50712;49.506;10.400;2022-10-15T00:30:29;34.04;31.39;45.85;;
64393;Laerm;50712;49.506;10.400;2022-10-15T00:31:05;34.04;31.10;39.49;;
64393;Laerm;50712;49.506;10.400;2022-10-15T00:31:36;34.53;31.17;44.23;;
64393;Laerm;50712;49.506;10.400;2022-10-15T00:32:09;33.31;30.83;42.00;;
64393;Laerm;50712;49.506;10.400;2022-10-15T00:32:42;33.16;30.04;50.86;;
64393;Laerm;50712;49.506;10.400;2022-10-15T00:33:12;32.62;30.02;39.50;;
64393;Laerm;50712;49.506;10.400;2022-10-15T00:33:43;32.49;29.99;50.89;;
64393;Laerm;50712;49.506;10.400;2022-10-15T00:34:14;32.80;30.03;40.95;;
64393;Laerm;50712;49.506;10.400;2022-10-15T00:34:45;33.24;29.90;42.10;;
64393;Laerm;50712;49.506;10.400;2022-10-15T00:35:16;34.09;30.38;52.31;;
64393;Laerm;50712;49.506;10.400;2022-10-15T00:35:46;32.89;30.42;38.04;;
64393;Laerm;50712;49.506;10.400;2022-10-15T00:36:19;32.49;30.20;43.96;;
64393;Laerm;50712;49.506;10.400;2022-10-15T00:36:50;32.33;30.40;39.26;;
64393;Laerm;50712;49.506;10.400;2022-10-15T00:37:21;31.83;29.83;49.02;;
64393;Laerm;50712;49.506;10.400;2022-10-15T00:37:51;31.21;29.86;34.58;;
64393;Laerm;50712;49.506;10.400;2022-10-15T00:38:22;31.95;29.75;50.35;;
64393;Laerm;50712;49.506;10.400;2022-10-15T00:38:53;31.60;29.91;41.72;;
64393;Laerm;50712;49.506;10.400;2022-10-15T00:39:23;31.28;29.45;45.36;;
64393;Laerm;50712;49.506;10.400;2022-10-15T00:39:54;31.80;29.84;39.72;;
64393;Laerm;50712;49.506;10.400;2022-10-15T00:40:24;31.12;29.30;42.78;;
64393;Laerm;50712;49.506;10.400;2022-10-15T00:40:56;32.36;29.86;40.95;;
64393;Laerm;50712;49.506;10.400;2022-10-15T00:41:31;35.31;30.70;44.39;;
64393;Laerm;50712;49.506;10.400;2022-10-15T00:42:02;35.21;30.74;44.68;;
64393;Laerm;50712;49.506;10.400;2022-10-15T00:42:33;35.13;30.56;48.05;;
64393;Laerm;50712;49.506;10.400;2022-10-15T00:43:08;35.36;30.64;43.32;;
64393;Laerm;50712;49.506;10.400;2022-10-15T00:43:49;33.68;29.34;41.33;;
64393;Laerm;50712;49.506;10.400;2022-10-15T00:44:57;31.03;28.97;40.21;;
64393;Laerm;50712;49.506;10.400;2022-10-15T00:45:28;30.56;28.57;45.92;;
64393;Laerm;50712;49.506;10.400;2022-10-15T00:45:59;30.33;28.62;46.98;;
64393;Laerm;50712;49.506;10.400;2022-10-15T00:46:34;29.90;28.24;39.79;;
64393;Laerm;50712;49.506;10.400;2022-10-15T00:47:16;29.74;28.38;37.31;;
64393;Laerm;50712;49.506;10.400;2022-10-15T00:47:48;29.78;28.51;35.70;;
64393;Laerm;50712;49.506;10.400;2022-10-15T00:48:30;29.94;28.23;34.50;;
64393;Laerm;50712;49.506;10.400;2022-10-15T00:49:29;31.56;28.93;55.20;;
64393;Laerm;50712;49.506;10.400;2022-10-15T00:50:16;34.00;30.42;43.69;;
64393;Laerm;50712;49.506;10.400;2022-10-15T00:50:48;36.94;33.16;51.38;;
64393;Laerm;50712;49.506;10.400;2022-10-15T00:51:20;37.98;33.89;49.91;;
64393;Laerm;50712;49.506;10.400;2022-10-15T00:51:56;39.53;34.84;46.89;;
64393;Laerm;50712;49.506;10.400;2022-10-15T00:52:40;43.23;40.06;48.59;;
64393;Laerm;50712;49.506;10.400;2022-10-15T00:53:11;44.01;41.22;50.89;;
64393;Laerm;50712;49.506;10.400;2022-10-15T00:53:42;43.00;40.36;46.55;;
64393;Laerm;50712;49.506;10.400;2022-10-15T00:54:13;41.65;39.31;48.67;;
64393;Laerm;50712;49.506;10.400;2022-10-15T00:54:49;41.58;39.10;52.40;;
64393;Laerm;50712;49.506;10.400;2022-10-15T00:55:39;41.74;38.51;52.16;;
64393;Laerm;50712;49.506;10.400;2022-10-15T00:56:11;41.55;38.52;52.83;;
64393;Laerm;50712;49.506;10.400;2022-10-15T00:56:43;40.62;38.21;49.20;;
64393;Laerm;50712;49.506;10.400;2022-10-15T00:57:48;42.02;39.44;47.50;;
64393;Laerm;50712;49.506;10.400;2022-10-15T00:58:20;43.23;40.58;48.76;;
64393;Laerm;50712;49.506;10.400;2022-10-15T00:58:59;42.89;40.26;49.03;;
64393;Laerm;50712;49.506;10.400;2022-10-15T00:59:30;41.46;38.96;48.51;;
64393;Laerm;50712;49.506;10.400;2022-10-15T01:00:07;41.33;38.28;55.16;;
64393;Laerm;50712;49.506;10.400;2022-10-15T01:00:38;42.41;39.37;50.90;;
64393;Laerm;50712;49.506;10.400;2022-10-15T01:01:08;43.70;41.08;52.12;;
64393;Laerm;50712;49.506;10.400;2022-10-15T01:01:39;42.70;39.28;50.32;;
64393;Laerm;50712;49.506;10.400;2022-10-15T01:02:10;41.56;38.67;54.77;;
64393;Laerm;50712;49.506;10.400;2022-10-15T01:02:43;40.52;37.71;48.79;;
64393;Laerm;50712;49.506;10.400;2022-10-15T01:03:14;40.29;38.01;51.13;;
64393;Laerm;50712;49.506;10.400;2022-10-15T01:03:45;40.66;37.99;51.37;;
64393;Laerm;50712;49.506;10.400;2022-10-15T01:04:16;41.74;38.04;52.97;;
64393;Laerm;50712;49.506;10.400;2022-10-15T01:04:48;44.63;39.38;50.21;;
64393;Laerm;50712;49.506;10.400;2022-10-15T01:05:18;44.49;40.86;56.34;;
64393;Laerm;50712;49.506;10.400;2022-10-15T01:06:22;43.42;39.66;52.28;;
64393;Laerm;50712;49.506;10.400;2022-10-15T01:06:53;45.48;42.05;53.59;;
64393;Laerm;50712;49.506;10.400;2022-10-15T01:07:23;44.35;41.27;51.15;;
64393;Laerm;50712;49.506;10.400;2022-10-15T01:07:54;44.05;41.06;49.55;;
64393;Laerm;50712;49.506;10.400;2022-10-15T01:08:24;45.05;41.43;55.28;;
64393;Laerm;50712;49.506;10.400;2022-10-15T01:08:55;44.52;40.81;51.91;;
64393;Laerm;50712;49.506;10.400;2022-10-15T01:09:25;44.99;42.06;54.18;;
64393;Laerm;50712;49.506;10.400;2022-10-15T01:09:57;44.29;40.97;52.93;;
64393;Laerm;50712;49.506;10.400;2022-10-15T01:10:33;43.82;40.79;49.74;;
64393;Laerm;50712;49.506;10.400;2022-10-15T01:11:48;41.73;38.76;52.76;;
64393;Laerm;50712;49.506;10.400;2022-10-15T01:13:16;38.79;35.84;52.18;;
64393;Laerm;50712;49.506;10.400;2022-10-15T01:14:45;36.38;33.66;53.79;;
64393;Laerm;50712;49.506;10.400;2022-10-15T01:15:25;36.38;33.66;53.79;;
64393;Laerm;50712;49.506;10.400;2022-10-15T01:16:07;35.87;33.25;50.21;;
64393;Laerm;50712;49.506;10.400;2022-10-15T01:16:46;35.14;33.11;46.89;;
64393;Laerm;50712;49.506;10.400;2022-10-15T01:17:26;34.74;32.32;47.80;;
64393;Laerm;50712;49.506;10.400;2022-10-15T01:18:09;36.71;32.76;50.65;;
64393;Laerm;50712;49.506;10.400;2022-10-15T01:18:52;38.50;35.51;56.80;;
64393;Laerm;50712;49.506;10.400;2022-10-15T01:21:34;36.82;34.02;50.51;;
64393;Laerm;50712;49.506;10.400;2022-10-15T01:22:12;37.44;34.44;53.72;;
64393;Laerm;50712;49.506;10.400;2022-10-15T01:22:56;37.53;35.12;52.66;;
64393;Laerm;50712;49.506;10.400;2022-10-15T01:25:37;35.69;33.59;43.40;;
64393;Laerm;50712;49.506;10.400;2022-10-15T01:29:21;35.24;32.77;54.45;;
64393;Laerm;50712;49.506;10.400;2022-10-15T01:30:03;35.23;32.72;51.28;;
64393;Laerm;50712;49.506;10.400;2022-10-15T01:30:39;35.04;32.89;54.54;;
64393;Laerm;50712;49.506;10.400;2022-10-15T01:31:53;33.92;31.45;47.52;;
64393;Laerm;50712;49.506;10.400;2022-10-15T01:32:37;33.42;31.26;45.81;;
64393;Laerm;50712;49.506;10.400;2022-10-15T01:34:03;32.31;30.28;40.97;;
64393;Laerm;50712;49.506;10.400;2022-10-15T01:35:07;32.70;29.98;51.63;;
64393;Laerm;50712;49.506;10.400;2022-10-15T01:35:47;32.39;30.05;41.99;;
64393;Laerm;50712;49.506;10.400;2022-10-15T01:37:35;33.77;29.34;56.68;;
64393;Laerm;50712;49.506;10.400;2022-10-15T01:38:58;38.30;34.35;44.66;;
64393;Laerm;50712;49.506;10.400;2022-10-15T01:39:33;38.81;35.35;51.12;;
64393;Laerm;50712;49.506;10.400;2022-10-15T01:40:15;36.87;34.53;42.82;;
64393;Laerm;50712;49.506;10.400;2022-10-15T01:41:01;36.57;33.83;45.14;;
64393;Laerm;50712;49.506;10.400;2022-10-15T01:41:44;36.55;33.25;53.16;;
64393;Laerm;50712;49.506;10.400;2022-10-15T01:42:28;37.80;34.91;49.22;;
64393;Laerm;50712;49.506;10.400;2022-10-15T01:43:08;38.47;35.55;47.47;;
64393;Laerm;50712;49.506;10.400;2022-10-15T01:44:14;42.38;38.19;52.57;;
64393;Laerm;50712;49.506;10.400;2022-10-15T01:45:09;41.35;38.00;48.95;;
64393;Laerm;50712;49.506;10.400;2022-10-15T01:46:11;40.95;37.48;48.18;;
64393;Laerm;50712;49.506;10.400;2022-10-15T01:46:57;42.48;39.84;53.20;;
64393;Laerm;50712;49.506;10.400;2022-10-15T01:47:35;43.04;40.62;49.72;;
64393;Laerm;50712;49.506;10.400;2022-10-15T01:48:11;41.90;38.74;47.02;;
64393;Laerm;50712;49.506;10.400;2022-10-15T01:48:42;40.22;37.71;51.47;;
64393;Laerm;50712;49.506;10.400;2022-10-15T01:49:14;39.38;36.37;52.81;;
64393;Laerm;50712;49.506;10.400;2022-10-15T01:49:48;39.00;36.96;46.19;;
64393;Laerm;50712;49.506;10.400;2022-10-15T01:50:23;38.57;36.26;55.42;;
64393;Laerm;50712;49.506;10.400;2022-10-15T01:50:59;37.73;34.86;49.81;;
64393;Laerm;50712;49.506;10.400;2022-10-15T01:51:32;38.38;35.53;49.93;;
64393;Laerm;50712;49.506;10.400;2022-10-15T01:52:08;37.66;35.06;46.63;;
64393;Laerm;50712;49.506;10.400;2022-10-15T01:52:42;37.85;35.25;54.98;;
64393;Laerm;50712;49.506;10.400;2022-10-15T01:53:16;38.62;35.59;50.19;;
64393;Laerm;50712;49.506;10.400;2022-10-15T01:53:49;39.86;37.62;51.33;;
64393;Laerm;50712;49.506;10.400;2022-10-15T01:54:23;39.48;37.23;46.11;;
64393;Laerm;50712;49.506;10.400;2022-10-15T01:54:57;38.53;36.31;51.64;;
64393;Laerm;50712;49.506;10.400;2022-10-15T01:55:30;38.93;36.33;53.81;;
64393;Laerm;50712;49.506;10.400;2022-10-15T01:56:12;39.22;36.96;53.63;;
64393;Laerm;50712;49.506;10.400;2022-10-15T01:56:48;38.99;36.10;51.59;;
64393;Laerm;50712;49.506;10.400;2022-10-15T01:57:26;38.58;36.00;54.85;;
64393;Laerm;50712;49.506;10.400;2022-10-15T01:57:59;37.78;34.78;53.21;;
64393;Laerm;50712;49.506;10.400;2022-10-15T01:58:30;37.62;34.79;48.71;;
64393;Laerm;50712;49.506;10.400;2022-10-15T01:59:01;39.16;35.30;54.09;;
64393;Laerm;50712;49.506;10.400;2022-10-15T01:59:33;40.52;37.38;49.09;;
64393;Laerm;50712;49.506;10.400;2022-10-15T02:00:04;42.46;38.62;54.61;;
64393;Laerm;50712;49.506;10.400;2022-10-15T02:00:43;42.47;39.59;52.38;;
64393;Laerm;50712;49.506;10.400;2022-10-15T02:01:15;42.20;39.30;52.02;;
64393;Laerm;50712;49.506;10.400;2022-10-15T02:01:46;42.57;40.17;49.74;;
64393;Laerm;50712;49.506;10.400;2022-10-15T02:02:16;46.19;40.89;59.78;;
64393;Laerm;50712;49.506;10.400;2022-10-15T02:02:46;46.93;43.92;54.23;;
64393;Laerm;50712;49.506;10.400;2022-10-15T02:03:17;45.56;42.40;52.20;;
64393;Laerm;50712;49.506;10.400;2022-10-15T02:03:50;44.46;41.45;51.55;;
64393;Laerm;50712;49.506;10.400;2022-10-15T02:04:24;43.66;41.33;52.62;;
64393;Laerm;50712;49.506;10.400;2022-10-15T02:04:54;44.03;41.19;52.63;;
64393;Laerm;50712;49.506;10.400;2022-10-15T02:05:45;44.82;41.95;52.57;;
64393;Laerm;50712;49.506;10.400;2022-10-15T02:06:41;42.92;38.87;53.50;;
64393;Laerm;50712;49.506;10.400;2022-10-15T02:07:43;40.56;37.48;55.73;;
64393;Laerm;50712;49.506;10.400;2022-10-15T02:08:36;40.35;36.83;56.61;;
64393;Laerm;50712;49.506;10.400;2022-10-15T02:10:21;40.27;36.54;59.31;;
64393;Laerm;50712;49.506;10.400;2022-10-15T02:11:51;41.61;38.61;51.74;;
64393;Laerm;50712;49.506;10.400;2022-10-15T02:13:32;40.42;37.26;49.40;;
64393;Laerm;50712;49.506;10.400;2022-10-15T02:14:50;40.29;36.81;54.99;;
64393;Laerm;50712;49.506;10.400;2022-10-15T02:17:05;41.61;37.63;53.74;;
64393;Laerm;50712;49.506;10.400;2022-10-15T02:17:41;40.08;37.00;50.71;;
64393;Laerm;50712;49.506;10.400;2022-10-15T02:18:57;40.32;37.14;60.28;;
64393;Laerm;50712;49.506;10.400;2022-10-15T02:20:15;39.11;36.09;53.06;;
64393;Laerm;50712;49.506;10.400;2022-10-15T02:20:55;39.11;36.09;53.06;;
64393;Laerm;50712;49.506;10.400;2022-10-15T02:21:38;40.55;37.99;56.43;;
64393;Laerm;50712;49.506;10.400;2022-10-15T02:22:26;40.54;37.39;55.12;;
64393;Laerm;50712;49.506;10.400;2022-10-15T02:23:08;39.50;36.75;53.01;;
64393;Laerm;50712;49.506;10.400;2022-10-15T02:24:23;41.00;38.00;49.31;;
64393;Laerm;50712;49.506;10.400;2022-10-15T02:24:57;42.01;38.43;49.00;;
64393;Laerm;50712;49.506;10.400;2022-10-15T02:25:32;42.02;39.11;56.94;;
64393;Laerm;50712;49.506;10.400;2022-10-15T02:26:06;41.35;38.86;58.40;;
64393;Laerm;50712;49.506;10.400;2022-10-15T02:26:39;41.12;38.98;56.45;;
64393;Laerm;50712;49.506;10.400;2022-10-15T02:27:13;40.99;38.60;54.63;;
64393;Laerm;50712;49.506;10.400;2022-10-15T02:27:46;40.26;36.84;60.92;;
64393;Laerm;50712;49.506;10.400;2022-10-15T02:28:18;39.37;36.57;54.50;;
64393;Laerm;50712;49.506;10.400;2022-10-15T02:28:53;38.67;35.88;52.81;;
64393;Laerm;50712;49.506;10.400;2022-10-15T02:29:27;38.59;35.50;60.48;;
64393;Laerm;50712;49.506;10.400;2022-10-15T02:30:02;38.58;35.76;55.42;;
64393;Laerm;50712;49.506;10.400;2022-10-15T02:30:36;38.71;35.79;55.39;;
64393;Laerm;50712;49.506;10.400;2022-10-15T02:31:09;38.66;36.36;54.94;;
64393;Laerm;50712;49.506;10.400;2022-10-15T02:31:46;39.00;36.15;55.37;;
64393;Laerm;50712;49.506;10.400;2022-10-15T02:32:20;38.61;36.02;50.75;;
64393;Laerm;50712;49.506;10.400;2022-10-15T02:32:54;38.43;35.62;50.30;;
64393;Laerm;50712;49.506;10.400;2022-10-15T02:33:28;38.72;36.27;53.01;;
64393;Laerm;50712;49.506;10.400;2022-10-15T02:34:07;38.72;36.14;54.83;;
64393;Laerm;50712;49.506;10.400;2022-10-15T02:34:41;38.45;36.30;56.27;;
64393;Laerm;50712;49.506;10.400;2022-10-15T02:35:12;37.48;34.43;55.28;;
64393;Laerm;50712;49.506;10.400;2022-10-15T02:35:46;37.39;34.75;54.02;;
64393;Laerm;50712;49.506;10.400;2022-10-15T02:36:18;37.03;34.94;48.47;;
64393;Laerm;50712;49.506;10.400;2022-10-15T02:36:49;37.36;34.78;56.57;;
64393;Laerm;50712;49.506;10.400;2022-10-15T02:37:22;37.19;34.48;52.93;;
64393;Laerm;50712;49.506;10.400;2022-10-15T02:37:55;39.07;35.71;51.91;;
64393;Laerm;50712;49.506;10.400;2022-10-15T02:38:28;39.93;35.73;49.07;;
64393;Laerm;50712;49.506;10.400;2022-10-15T02:39:00;37.00;34.33;50.29;;
64393;Laerm;50712;49.506;10.400;2022-10-15T02:39:33;38.00;34.73;52.07;;
64393;Laerm;50712;49.506;10.400;2022-10-15T02:40:03;37.86;34.49;52.39;;
64393;Laerm;50712;49.506;10.400;2022-10-15T02:41:06;41.25;38.61;55.73;;
64393;Laerm;50712;49.506;10.400;2022-10-15T02:41:38;41.49;38.46;56.03;;
64393;Laerm;50712;49.506;10.400;2022-10-15T02:42:08;42.40;40.06;52.45;;
64393;Laerm;50712;49.506;10.400;2022-10-15T02:42:39;44.05;40.46;60.74;;
64393;Laerm;50712;49.506;10.400;2022-10-15T02:43:13;45.79;41.81;59.29;;
64393;Laerm;50712;49.506;10.400;2022-10-15T02:43:45;44.16;39.91;52.75;;
64393;Laerm;50712;49.506;10.400;2022-10-15T02:44:16;43.37;39.30;66.04;;
64393;Laerm;50712;49.506;10.400;2022-10-15T02:44:46;43.00;40.49;55.44;;
64393;Laerm;50712;49.506;10.400;2022-10-15T02:45:17;42.07;38.78;55.17;;
64393;Laerm;50712;49.506;10.400;2022-10-15T02:45:47;40.74;38.06;54.11;;
64393;Laerm;50712;49.506;10.400;2022-10-15T02:46:19;41.19;38.70;57.43;;
64393;Laerm;50712;49.506;10.400;2022-10-15T02:46:50;40.70;37.74;50.23;;
64393;Laerm;50712;49.506;10.400;2022-10-15T02:47:22;40.43;37.77;52.82;;
64393;Laerm;50712;49.506;10.400;2022-10-15T02:47:53;39.38;36.52;57.40;;
64393;Laerm;50712;49.506;10.400;2022-10-15T02:48:24;39.28;36.39;55.99;;
64393;Laerm;50712;49.506;10.400;2022-10-15T02:48:54;38.78;35.98;59.55;;
64393;Laerm;50712;49.506;10.400;2022-10-15T02:49:24;40.11;36.21;57.15;;
64393;Laerm;50712;49.506;10.400;2022-10-15T02:49:55;41.42;38.22;60.04;;
64393;Laerm;50712;49.506;10.400;2022-10-15T02:50:25;40.87;37.99;51.77;;
64393;Laerm;50712;49.506;10.400;2022-10-15T02:50:55;41.31;38.25;57.43;;
64393;Laerm;50712;49.506;10.400;2022-10-15T02:51:26;40.94;37.98;53.51;;
64393;Laerm;50712;49.506;10.400;2022-10-15T02:51:56;40.64;37.75;53.10;;
64393;Laerm;50712;49.506;10.400;2022-10-15T02:52:27;40.12;37.68;50.83;;
64393;Laerm;50712;49.506;10.400;2022-10-15T02:52:57;40.29;37.19;53.12;;
64393;Laerm;50712;49.506;10.400;2022-10-15T02:53:27;39.30;36.60;47.75;;
64393;Laerm;50712;49.506;10.400;2022-10-15T02:53:59;39.39;36.87;55.27;;
64393;Laerm;50712;49.506;10.400;2022-10-15T02:54:30;39.10;36.97;44.14;;
64393;Laerm;50712;49.506;10.400;2022-10-15T02:55:04;38.17;35.40;49.04;;
64393;Laerm;50712;49.506;10.400;2022-10-15T02:55:35;37.22;34.53;52.35;;
64393;Laerm;50712;49.506;10.400;2022-10-15T02:56:05;37.12;34.00;57.08;;
64393;Laerm;50712;49.506;10.400;2022-10-15T02:56:36;36.13;33.60;53.51;;
64393;Laerm;50712;49.506;10.400;2022-10-15T02:57:08;36.08;33.41;47.54;;
64393;Laerm;50712;49.506;10.400;2022-10-15T02:57:39;36.68;33.93;48.47;;
64393;Laerm;50712;49.506;10.400;2022-10-15T02:58:10;38.20;35.24;53.04;;
64393;Laerm;50712;49.506;10.400;2022-10-15T02:58:40;37.87;34.77;53.76;;
64393;Laerm;50712;49.506;10.400;2022-10-15T02:59:11;36.75;34.32;51.41;;
64393;Laerm;50712;49.506;10.400;2022-10-15T02:59:41;37.27;34.80;46.96;;
64393;Laerm;50712;49.506;10.400;2022-10-15T03:00:13;37.53;34.79;52.09;;
64393;Laerm;50712;49.506;10.400;2022-10-15T03:00:44;37.23;34.49;55.24;;
64393;Laerm;50712;49.506;10.400;2022-10-15T03:01:16;37.11;34.43;51.41;;
64393;Laerm;50712;49.506;10.400;2022-10-15T03:01:46;37.40;34.71;54.38;;
64393;Laerm;50712;49.506;10.400;2022-10-15T03:02:48;38.18;34.85;55.55;;
64393;Laerm;50712;49.506;10.400;2022-10-15T03:03:21;37.38;35.25;43.30;;
64393;Laerm;50712;49.506;10.400;2022-10-15T03:03:51;36.88;34.71;49.04;;
64393;Laerm;50712;49.506;10.400;2022-10-15T03:04:23;36.26;33.72;47.25;;
64393;Laerm;50712;49.506;10.400;2022-10-15T03:04:54;36.29;33.86;55.33;;
64393;Laerm;50712;49.506;10.400;2022-10-15T03:05:26;36.43;34.16;48.52;;
64393;Laerm;50712;49.506;10.400;2022-10-15T03:05:56;36.25;33.82;53.69;;
64393;Laerm;50712;49.506;10.400;2022-10-15T03:06:27;36.84;33.14;49.79;;
64393;Laerm;50712;49.506;10.400;2022-10-15T03:06:57;48.74;36.20;58.18;;
64393;Laerm;50712;49.506;10.400;2022-10-15T03:07:29;50.66;42.13;58.76;;
64393;Laerm;50712;49.506;10.400;2022-10-15T03:07:59;48.08;40.81;60.78;;
64393;Laerm;50712;49.506;10.400;2022-10-15T03:09:00;39.09;34.44;57.09;;
64393;Laerm;50712;49.506;10.400;2022-10-15T03:09:30;35.58;32.55;43.95;;
64393;Laerm;50712;49.506;10.400;2022-10-15T03:10:01;35.43;31.51;58.41;;
64393;Laerm;50712;49.506;10.400;2022-10-15T03:10:32;33.43;31.15;48.52;;
64393;Laerm;50712;49.506;10.400;2022-10-15T03:11:03;32.86;30.71;48.16;;
64393;Laerm;50712;49.506;10.400;2022-10-15T03:11:33;32.43;30.68;47.54;;
64393;Laerm;50712;49.506;10.400;2022-10-15T03:12:05;32.21;30.41;40.13;;
64393;Laerm;50712;49.506;10.400;2022-10-15T03:12:36;33.21;30.68;51.72;;
64393;Laerm;50712;49.506;10.400;2022-10-15T03:13:08;33.83;30.83;53.57;;
64393;Laerm;50712;49.506;10.400;2022-10-15T03:13:47;34.64;31.60;42.13;;
64393;Laerm;50712;49.506;10.400;2022-10-15T03:14:20;35.75;31.69;60.56;;
64393;Laerm;50712;49.506;10.400;2022-10-15T03:14:51;32.82;30.81;39.48;;
64393;Laerm;50712;49.506;10.400;2022-10-15T03:15:22;34.90;31.50;51.59;;
64393;Laerm;50712;49.506;10.400;2022-10-15T03:15:54;35.59;33.22;43.86;;
64393;Laerm;50712;49.506;10.400;2022-10-15T03:16:25;36.83;33.92;50.83;;
64393;Laerm;50712;49.506;10.400;2022-10-15T03:16:56;36.04;33.30;41.25;;
64393;Laerm;50712;49.506;10.400;2022-10-15T03:17:27;34.97;32.69;41.97;;
64393;Laerm;50712;49.506;10.400;2022-10-15T03:17:57;35.80;32.95;48.50;;
64393;Laerm;50712;49.506;10.400;2022-10-15T03:18:27;41.67;35.67;52.73;;
64393;Laerm;50712;49.506;10.400;2022-10-15T03:18:58;40.47;36.13;47.25;;
64393;Laerm;50712;49.506;10.400;2022-10-15T03:19:28;38.57;36.11;50.95;;
64393;Laerm;50712;49.506;10.400;2022-10-15T03:19:58;38.03;35.90;46.41;;
64393;Laerm;50712;49.506;10.400;2022-10-15T03:20:29;37.42;35.31;44.12;;
64393;Laerm;50712;49.506;10.400;2022-10-15T03:21:00;37.36;35.18;49.93;;
64393;Laerm;50712;49.506;10.400;2022-10-15T03:21:30;37.75;35.75;47.57;;
64393;Laerm;50712;49.506;10.400;2022-10-15T03:22:07;37.27;34.85;50.89;;
64393;Laerm;50712;49.506;10.400;2022-10-15T03:22:46;36.39;34.34;44.93;;
64393;Laerm;50712;49.506;10.400;2022-10-15T03:23:16;36.03;33.72;50.98;;
64393;Laerm;50712;49.506;10.400;2022-10-15T03:23:48;35.43;33.30;48.49;;
64393;Laerm;50712;49.506;10.400;2022-10-15T03:24:22;35.43;33.10;53.10;;
64393;Laerm;50712;49.506;10.400;2022-10-15T03:24:53;37.56;33.43;46.40;;
64393;Laerm;50712;49.506;10.400;2022-10-15T03:25:28;45.72;37.21;55.45;;
64393;Laerm;50712;49.506;10.400;2022-10-15T03:26:04;41.14;34.92;56.43;;
64393;Laerm;50712;49.506;10.400;2022-10-15T03:26:35;37.43;33.25;48.03;;
64393;Laerm;50712;49.506;10.400;2022-10-15T03:27:06;36.89;34.05;54.82;;
64393;Laerm;50712;49.506;10.400;2022-10-15T03:27:36;35.97;32.65;54.14;;
64393;Laerm;50712;49.506;10.400;2022-10-15T03:28:15;34.56;32.39;50.04;;
64393;Laerm;50712;49.506;10.400;2022-10-15T03:28:45;35.20;32.51;54.69;;
64393;Laerm;50712;49.506;10.400;2022-10-15T03:29:23;35.06;32.57;50.58;;
64393;Laerm;50712;49.506;10.400;2022-10-15T03:30:00;825.21;0.00;18494647683753925093697034753859.04;;
64393;Laerm;50712;49.506;10.400;2022-10-15T03:30:33;35.23;33.31;46.57;;
64393;Laerm;50712;49.506;10.400;2022-10-15T03:31:04;39.00;33.40;49.01;;
64393;Laerm;50712;49.506;10.400;2022-10-15T03:31:34;37.46;34.06;46.55;;